Time;durP1;ratioP1;P1;durP2;ratioP2;P2;SDS_P1;SDS_P2;PMS_P1;PMS_P2;Temp;Humidity;BMP_temperature;BMP_pressure;BME280_temperature;BME280_humidity;BME280_pressure;Samples;Min_cycle;Max_cycle;Signal;HPM_P1;HPM_P2
2022/03/26 00:00:09;;;;;;;133.73;79.05;;;307.70;1024.00;;;;;;5014177;28;20022;-62
2022/03/26 00:02:35;;;;;;;127.80;71.38;;;307.70;1024.00;;;;;;5013945;28;20535;-63
2022/03/26 00:05:02;;;;;;;118.45;65.82;;;307.70;1024.00;;;;;;5013665;28;20034;-62
2022/03/26 00:07:27;;;;;;;108.15;61.10;;;307.70;998.40;;;;;;5014132;28;20538;-61
2022/03/26 00:09:53;;;;;;;98.20;54.67;;;307.60;998.40;;;;;;5013469;28;20025;-62
2022/03/26 00:12:19;;;;;;;93.72;50.92;;;307.60;998.40;;;;;;5014158;28;20026;-63
2022/03/26 00:14:44;;;;;;;96.43;50.67;;;307.50;998.40;;;;;;5013857;28;20349;-63
2022/03/26 00:17:10;;;;;;;110.45;54.58;;;307.50;998.40;;;;;;5014280;28;20134;-62
2022/03/26 00:19:36;;;;;;;93.90;51.53;;;307.50;998.40;;;;;;5013744;28;20099;-61
2022/03/26 00:22:02;;;;;;;85.32;44.95;;;307.40;998.40;;;;;;5014040;28;20026;-60
2022/03/26 00:24:28;;;;;;;77.53;40.88;;;307.40;998.40;;;;;;5013763;28;20353;-60
2022/03/26 00:26:54;;;;;;;80.47;40.35;;;307.40;998.40;;;;;;5013881;28;20034;-61
2022/03/26 00:29:19;;;;;;;76.78;41.42;;;307.30;998.40;;;;;;5013839;28;20065;-58
2022/03/26 00:31:45;;;;;;;68.03;39.28;;;307.30;998.40;;;;;;5013693;28;20034;-58
2022/03/26 00:34:11;;;;;;;70.55;37.80;;;307.20;972.80;;;;;;5013448;28;20121;-57
2022/03/26 00:36:38;;;;;;;69.30;38.22;;;307.20;998.40;;;;;;5013468;28;20104;-57
2022/03/26 00:39:04;;;;;;;67.55;34.03;;;282.50;947.20;;;;;;5013550;28;20187;-57
2022/03/26 00:41:30;;;;;;;67.88;37.10;;;282.50;972.80;;;;;;5013450;28;20559;-57
2022/03/26 00:43:57;;;;;;;71.22;35.88;;;282.40;972.80;;;;;;5013628;28;20101;-57
2022/03/26 00:46:23;;;;;;;71.47;36.63;;;282.40;972.80;;;;;;5013474;28;20391;-58
2022/03/26 00:48:49;;;;;;;70.95;37.65;;;282.40;972.80;;;;;;5012891;28;20025;-59
2022/03/26 00:51:16;;;;;;;75.03;37.38;;;282.40;972.80;;;;;;5013441;28;20113;-59
2022/03/26 00:53:43;;;;;;;64.90;37.03;;;282.30;972.80;;;;;;5013140;28;20040;-58
2022/03/26 00:56:09;;;;;;;67.82;36.45;;;282.30;972.80;;;;;;5013443;28;20068;-61
2022/03/26 00:58:35;;;;;;;68.75;37.17;;;282.30;972.80;;;;;;5013589;28;20042;-58
2022/03/26 01:01:00;;;;;;;73.03;37.53;;;282.20;972.80;;;;;;5013482;28;20025;-57
2022/03/26 01:03:26;;;;;;;74.35;40.05;;;282.20;972.80;;;;;;4995545;28;20052;-59
2022/03/26 01:05:52;;;;;;;69.25;40.03;;;282.20;972.80;;;;;;5013170;28;20367;-60
2022/03/26 01:08:18;;;;;;;81.97;44.20;;;282.10;972.80;;;;;;5013245;28;20034;-58
2022/03/26 01:10:44;;;;;;;91.53;45.03;;;282.10;972.80;;;;;;5013222;28;20107;-60
2022/03/26 01:13:11;;;;;;;87.88;43.72;;;282.10;972.80;;;;;;5013151;28;20116;-58
2022/03/26 01:15:37;;;;;;;85.35;40.83;;;282.10;972.80;;;;;;5013232;28;20076;-58
2022/03/26 01:18:03;;;;;;;71.63;36.63;;;282.10;972.80;;;;;;5013199;28;20041;-58
2022/03/26 01:20:29;;;;;;;55.40;30.60;;;282.10;972.80;;;;;;5013300;28;20068;-58
2022/03/26 01:22:55;;;;;;;55.28;30.00;;;282.00;972.80;;;;;;5014955;28;20048;-58
2022/03/26 01:25:21;;;;;;;53.47;29.25;;;281.90;972.80;;;;;;5016540;28;20080;-60
2022/03/26 01:27:47;;;;;;;53.45;28.02;;;281.80;972.80;;;;;;5016834;28;20026;-61
2022/03/26 01:30:13;;;;;;;46.78;26.25;;;281.80;972.80;;;;;;5017277;28;20026;-58
2022/03/26 01:32:38;;;;;;;45.63;25.65;;;281.80;972.80;;;;;;5016501;28;20414;-60
2022/03/26 01:35:05;;;;;;;42.30;24.35;;;281.70;972.80;;;;;;5016634;28;20037;-58
2022/03/26 01:37:31;;;;;;;44.95;24.85;;;281.60;972.80;;;;;;5016522;28;20103;-61
2022/03/26 01:39:59;;;;;;;54.92;26.75;;;281.60;972.80;;;;;;5016386;28;20022;-61
2022/03/26 01:42:25;;;;;;;44.55;24.73;;;281.60;972.80;;;;;;5015875;28;20130;-61
2022/03/26 01:44:51;;;;;;;41.30;22.83;;;256.90;947.20;;;;;;5016394;28;20065;-61
2022/03/26 01:47:17;;;;;;;43.58;22.80;;;256.90;947.20;;;;;;5016366;28;20112;-58
2022/03/26 01:49:43;;;;;;;42.92;21.35;;;256.90;947.20;;;;;;5015782;28;20033;-57
2022/03/26 01:52:10;;;;;;;42.17;22.35;;;256.80;947.20;;;;;;5016261;28;20026;-58
2022/03/26 01:54:39;;;;;;;47.90;22.25;;;256.80;947.20;;;;;;5015992;28;20029;-58
2022/03/26 01:57:06;;;;;;;39.63;21.13;;;256.80;947.20;;;;;;5015878;28;20475;-57
2022/03/26 01:59:33;;;;;;;46.78;23.65;;;256.80;947.20;;;;;;5016064;28;20032;-57
2022/03/26 02:01:59;;;;;;;43.53;23.55;;;256.80;947.20;;;;;;5015917;28;20349;-57
2022/03/26 02:04:25;;;;;;;44.58;23.85;;;256.80;947.20;;;;;;5016064;28;20029;-57
2022/03/26 02:06:51;;;;;;;48.47;24.80;;;256.80;947.20;;;;;;5015906;28;20109;-57
2022/03/26 02:09:16;;;;;;;46.47;24.58;;;256.80;947.20;;;;;;5015597;28;20113;-57
2022/03/26 02:11:45;;;;;;;45.22;26.20;;;256.80;947.20;;;;;;5015844;28;20084;-58
2022/03/26 02:14:12;;;;;;;49.03;25.33;;;256.70;947.20;;;;;;5015861;28;20471;-59
2022/03/26 02:16:40;;;;;;;54.47;26.25;;;256.70;947.20;;;;;;5015518;28;20488;-57
2022/03/26 02:19:08;;;;;;;46.63;25.60;;;256.70;947.20;;;;;;5016278;28;20022;-58
2022/03/26 02:21:35;;;;;;;53.53;28.38;;;256.70;947.20;;;;;;5015560;28;20478;-59
2022/03/26 02:24:03;;;;;;;51.60;26.70;;;256.70;972.80;;;;;;5015579;28;20033;-57
2022/03/26 02:26:30;;;;;;;49.70;26.45;;;256.70;947.20;;;;;;5015524;28;20100;-58
2022/03/26 02:28:57;;;;;;;55.05;26.63;;;256.70;947.20;;;;;;5015581;28;20033;-59
2022/03/26 02:31:26;;;;;;;53.85;27.55;;;256.60;972.80;;;;;;5015534;28;20022;-58
2022/03/26 02:33:52;;;;;;;54.22;26.83;;;256.60;972.80;;;;;;5014872;28;20036;-58
2022/03/26 02:36:18;;;;;;;46.72;26.27;;;256.60;972.80;;;;;;5015293;28;20026;-58
2022/03/26 02:38:44;;;;;;;50.78;28.67;;;256.50;972.80;;;;;;5015340;28;20026;-59
2022/03/26 02:41:10;;;;;;;54.08;27.58;;;256.50;972.80;;;;;;5015141;28;20460;-58
2022/03/26 02:43:36;;;;;;;52.92;29.05;;;256.40;972.80;;;;;;5015040;28;20030;-59
2022/03/26 02:46:03;;;;;;;50.63;28.65;;;256.40;972.80;;;;;;5014944;28;20029;-58
2022/03/26 02:48:29;;;;;;;52.00;27.80;;;256.40;972.80;;;;;;5015228;28;20022;-58
2022/03/26 02:50:55;;;;;;;55.25;28.45;;;256.40;998.40;;;;;;5014886;28;20037;-58
2022/03/26 02:53:21;;;;;;;56.78;28.35;;;256.30;998.40;;;;;;5014453;28;20022;-58
2022/03/26 02:55:47;;;;;;;54.17;28.35;;;256.40;998.40;;;;;;5014867;28;20037;-60
2022/03/26 02:58:12;;;;;;;61.10;29.50;;;256.40;998.40;;;;;;5015000;28;20030;-59
2022/03/26 03:00:38;;;;;;;55.28;28.05;;;256.40;998.40;;;;;;5015041;28;20018;-59
2022/03/26 03:03:06;;;;;;;62.17;30.95;;;256.40;998.40;;;;;;5014878;28;20034;-59
2022/03/26 03:05:33;;;;;;;51.25;29.80;;;256.40;998.40;;;;;;5014661;28;20064;-59
2022/03/26 03:08:00;;;;;;;53.42;29.80;;;256.40;998.40;;;;;;5014726;28;20109;-61
2022/03/26 03:10:27;;;;;;;59.08;30.17;;;256.40;998.40;;;;;;5014838;28;20045;-60
2022/03/26 03:12:53;;;;;;;56.55;29.58;;;256.40;998.40;;;;;;5014669;28;20464;-60
2022/03/26 03:15:20;;;;;;;61.00;31.30;;;256.40;998.40;;;;;;5014742;28;20084;-61
2022/03/26 03:17:48;;;;;;;69.40;33.63;;;256.40;998.40;;;;;;5014748;28;20521;-60
2022/03/26 03:20:15;;;;;;;66.53;32.63;;;256.40;998.40;;;;;;5014439;28;20042;-60
2022/03/26 03:22:42;;;;;;;72.35;31.13;;;256.40;998.40;;;;;;5014633;28;20022;-58
2022/03/26 03:25:09;;;;;;;59.20;30.52;;;256.40;998.40;;;;;;5014582;28;20048;-61
2022/03/26 03:27:36;;;;;;;61.97;31.65;;;256.40;998.40;;;;;;5014498;28;20040;-61
2022/03/26 03:30:03;;;;;;;60.33;32.83;;;256.40;998.40;;;;;;5014556;28;20030;-61
2022/03/26 03:32:29;;;;;;;60.08;33.28;;;256.40;998.40;;;;;;5014981;28;20049;-60
2022/03/26 03:34:56;;;;;;;62.33;33.83;;;256.30;1024.00;;;;;;5014464;28;20464;-59
2022/03/26 03:37:23;;;;;;;61.00;33.97;;;256.30;998.40;;;;;;5014492;28;20034;-60
2022/03/26 03:39:49;;;;;;;67.43;33.92;;;256.30;1024.00;;;;;;5014212;28;20030;-59
2022/03/26 03:42:15;;;;;;;61.20;33.33;;;256.20;1024.00;;;;;;5013978;28;20088;-59
2022/03/26 03:44:40;;;;;;;55.15;30.45;;;256.20;1024.00;;;;;;5013754;28;20038;-60
2022/03/26 03:47:06;;;;;;;60.90;31.58;;;256.10;1024.00;;;;;;5013920;28;20379;-60
2022/03/26 03:49:32;;;;;;;59.08;31.83;;;256.10;1024.00;;;;;;5014338;28;20022;-59
2022/03/26 03:51:59;;;;;;;62.25;33.50;;;256.20;1024.00;;;;;;5014184;28;20431;-59
2022/03/26 03:54:25;;;;;;;62.53;32.65;;;256.10;1024.00;;;;;;5014043;28;20022;-59
2022/03/26 03:56:51;;;;;;;60.95;32.53;;;256.00;1024.00;;;;;;5013905;28;20052;-59
2022/03/26 03:59:17;;;;;;;59.58;32.08;;;256.00;1024.00;;;;;;5014130;28;20030;-59
2022/03/26 04:01:43;;;;;;;56.35;31.48;;;256.00;1024.00;;;;;;5014125;28;20419;-59
2022/03/26 04:04:08;;;;;;;57.10;33.55;;;256.00;1024.00;;;;;;5014039;28;20026;-59
2022/03/26 04:06:34;;;;;;;62.92;34.63;;;256.00;1049.60;;;;;;5013849;28;20080;-59
2022/03/26 04:09:00;;;;;;;73.72;33.78;;;256.00;1049.60;;;;;;5013860;28;20021;-59
2022/03/26 04:11:26;;;;;;;65.10;35.08;;;256.00;1049.60;;;;;;4995887;28;20044;-60
2022/03/26 04:13:53;;;;;;;62.40;32.40;;;256.00;1049.60;;;;;;5013814;28;20375;-59
2022/03/26 04:16:22;;;;;;;69.18;36.22;;;256.00;1049.60;;;;;;5013534;28;20061;-59
2022/03/26 04:18:48;;;;;;;66.80;35.33;;;231.30;1049.60;;;;;;5013758;28;20048;-58
2022/03/26 04:21:15;;;;;;;64.53;36.17;;;231.30;1049.60;;;;;;5013658;28;20110;-59
2022/03/26 04:23:41;;;;;;;60.08;37.30;;;256.00;1049.60;;;;;;5013899;28;20050;-59
2022/03/26 04:26:08;;;;;;;66.13;36.08;;;256.00;1049.60;;;;;;5013628;28;20045;-59
2022/03/26 04:28:33;;;;;;;61.75;34.38;;;231.30;1049.60;;;;;;5013792;28;20150;-58
2022/03/26 04:30:59;;;;;;;61.38;34.95;;;256.00;1049.60;;;;;;5014021;28;20054;-59
2022/03/26 04:33:25;;;;;;;64.30;33.80;;;231.30;1049.60;;;;;;5013494;28;20026;-58
2022/03/26 04:35:51;;;;;;;73.45;35.55;;;231.30;1049.60;;;;;;5013795;28;20045;-58
2022/03/26 04:38:16;;;;;;;71.75;33.25;;;231.30;1049.60;;;;;;5013458;28;20110;-61
2022/03/26 04:40:42;;;;;;;76.90;36.65;;;231.30;1049.60;;;;;;5013420;28;20100;-60
2022/03/26 04:43:08;;;;;;;83.70;43.80;;;231.30;1049.60;;;;;;5013429;28;20050;-59
2022/03/26 04:45:34;;;;;;;98.03;49.90;;;231.30;1049.60;;;;;;5013649;28;20033;-58
2022/03/26 04:48:00;;;;;;;82.70;44.00;;;231.20;1075.20;;;;;;5013554;28;20018;-59
2022/03/26 04:50:26;;;;;;;86.82;41.50;;;231.20;1075.20;;;;;;5013476;28;20036;-60
2022/03/26 04:52:52;;;;;;;99.93;45.03;;;231.20;1100.80;;;;;;5013560;28;20057;-60
2022/03/26 04:55:18;;;;;;;96.72;49.70;;;231.20;1100.80;;;;;;5013395;28;20381;-61
2022/03/26 04:57:47;;;;;;;120.30;57.55;;;231.10;1100.80;;;;;;5016411;28;20034;-60
2022/03/26 05:00:15;;;;;;;129.50;57.20;;;231.00;1100.80;;;;;;5017240;28;20022;-75
2022/03/26 05:02:41;;;;;;;140.82;60.97;;;231.00;1254.40;;;;;;5017124;28;20033;-56
2022/03/26 05:05:08;;;;;;;134.82;59.95;;;231.00;1177.60;;;;;;5017159;28;20026;-60
2022/03/26 05:07:45;;;;;;;112.05;56.20;;;231.00;1126.40;;;;;;5017100;28;20057;-60
2022/03/26 05:10:32;;;;;;;112.55;51.78;;;231.00;1126.40;;;;;;5016883;28;20545;-56
2022/03/26 05:12:58;;;;;;;95.70;47.00;;;231.00;1126.40;;;;;;4998997;28;20046;-56
2022/03/26 05:15:27;;;;;;;83.82;44.20;;;231.00;1126.40;;;;;;5016317;28;20071;-57
2022/03/26 05:17:54;;;;;;;88.25;41.30;;;231.00;1126.40;;;;;;5016560;28;20091;-60
2022/03/26 05:20:20;;;;;;;86.32;42.78;;;231.10;1126.40;;;;;;5016969;28;20375;-58
2022/03/26 05:22:47;;;;;;;84.28;45.80;;;231.10;1126.40;;;;;;5016841;28;20032;-56
2022/03/26 05:25:14;;;;;;;92.95;47.55;;;231.10;1126.40;;;;;;5016580;28;20022;-63
2022/03/26 05:27:44;;;;;;;95.88;49.53;;;231.20;1126.40;;;;;;5016646;28;20030;-62
2022/03/26 05:30:10;;;;;;;96.80;49.22;;;231.20;1152.00;;;;;;5016584;28;20025;-60
2022/03/26 05:32:36;;;;;;;96.55;48.50;;;231.10;1152.00;;;;;;5016405;28;20483;-56
2022/03/26 05:35:03;;;;;;;87.32;45.78;;;231.20;1152.00;;;;;;5016823;28;20088;-60
2022/03/26 05:37:29;;;;;;;82.57;43.53;;;231.20;1177.60;;;;;;5016511;28;20045;-60
2022/03/26 05:39:55;;;;;;;77.90;42.00;;;231.20;1177.60;;;;;;5016543;28;20407;-62
2022/03/26 05:42:21;;;;;;;75.53;39.45;;;231.20;1177.60;;;;;;5016062;28;20060;-62
2022/03/26 05:44:46;;;;;;;71.82;39.10;;;231.20;1177.60;;;;;;5016443;28;20026;-62
2022/03/26 05:47:12;;;;;;;69.63;38.88;;;231.20;1203.20;;;;;;5016609;28;20100;-56
2022/03/26 05:49:38;;;;;;;75.95;41.13;;;231.30;1203.20;;;;;;5016587;28;20036;-61
2022/03/26 05:52:04;;;;;;;91.00;44.88;;;256.00;1203.20;;;;;;5016312;28;20061;-61
2022/03/26 05:54:30;;;;;;;74.35;38.80;;;256.10;1177.60;;;;;;5016067;28;20543;-57
2022/03/26 05:56:56;;;;;;;76.05;36.92;;;256.20;1203.20;;;;;;5015912;28;20108;-56
2022/03/26 05:59:26;;;;;;;67.75;35.90;;;256.30;1203.20;;;;;;5016187;28;20057;-59
2022/03/26 06:01:54;;;;;;;69.88;39.65;;;256.40;1203.20;;;;;;5016369;28;20159;-57
2022/03/26 06:04:23;;;;;;;81.57;41.85;;;256.50;1177.60;;;;;;5016071;28;20116;-61
2022/03/26 06:06:48;;;;;;;74.32;40.55;;;256.60;1177.60;;;;;;5015717;28;20040;-59
2022/03/26 06:09:14;;;;;;;72.63;38.63;;;256.70;1177.60;;;;;;5015430;28;20022;-57
2022/03/26 06:11:40;;;;;;;65.88;34.05;;;256.70;1203.20;;;;;;5015624;28;20467;-57
2022/03/26 06:14:06;;;;;;;63.03;34.72;;;256.70;1177.60;;;;;;5015815;28;20397;-61
2022/03/26 06:16:33;;;;;;;57.53;30.98;;;256.80;1177.60;;;;;;5015746;28;20033;-60
2022/03/26 06:18:59;;;;;;;58.17;30.35;;;256.80;1177.60;;;;;;5015912;28;20034;-61
2022/03/26 06:21:25;;;;;;;50.83;28.50;;;256.90;1203.20;;;;;;5015619;28;20046;-57
2022/03/26 06:23:51;;;;;;;49.47;28.63;;;281.60;1203.20;;;;;;5015671;28;20502;-60
2022/03/26 06:26:16;;;;;;;52.83;28.52;;;281.80;1203.20;;;;;;5015316;28;20607;-60
2022/03/26 06:28:42;;;;;;;48.97;27.98;;;281.90;1203.20;;;;;;5015136;28;20026;-60
2022/03/26 06:31:08;;;;;;;47.47;26.33;;;282.10;1203.20;;;;;;5015513;28;20084;-57
2022/03/26 06:33:35;;;;;;;41.70;25.38;;;282.20;1177.60;;;;;;5015282;28;20034;-57
2022/03/26 06:36:01;;;;;;;41.08;24.63;;;282.30;1177.60;;;;;;5015355;28;20037;-60
2022/03/26 06:38:31;;;;;;;43.00;24.00;;;282.50;1177.60;;;;;;5015298;28;20064;-57
2022/03/26 06:40:57;;;;;;;44.22;24.08;;;307.20;1203.20;;;;;;5014992;28;20026;-57
2022/03/26 06:43:23;;;;;;;40.63;23.85;;;307.20;1203.20;;;;;;5015230;28;20399;-57
2022/03/26 06:45:49;;;;;;;41.67;21.85;;;307.30;1203.20;;;;;;5015125;28;20026;-57
2022/03/26 06:48:14;;;;;;;39.20;21.95;;;307.40;1203.20;;;;;;5014945;28;20379;-57
2022/03/26 06:50:40;;;;;;;35.08;20.80;;;307.60;1203.20;;;;;;5015298;28;20033;-60
2022/03/26 06:53:06;;;;;;;38.40;21.13;;;307.70;1177.60;;;;;;5015044;28;20109;-60
2022/03/26 06:55:32;;;;;;;40.28;21.40;;;307.80;1177.60;;;;;;5015079;28;20026;-62
2022/03/26 06:57:58;;;;;;;40.63;19.98;;;308.00;1177.60;;;;;;5015125;28;20097;-58
2022/03/26 07:00:23;;;;;;;33.67;19.60;;;308.10;1177.60;;;;;;5015050;28;20515;-57
2022/03/26 07:02:49;;;;;;;38.55;20.05;;;332.80;1203.20;;;;;;5014165;28;20040;-57
2022/03/26 07:05:15;;;;;;;35.20;19.67;;;333.00;1203.20;;;;;;5013438;28;20022;-60
2022/03/26 07:07:41;;;;;;;43.65;20.70;;;333.00;1177.60;;;;;;5013424;28;20022;-58
2022/03/26 07:10:08;;;;;;;32.88;19.67;;;333.20;1177.60;;;;;;5013506;28;20018;-58
2022/03/26 07:12:34;;;;;;;37.47;18.83;;;333.30;1177.60;;;;;;5013222;28;20391;-57
2022/03/26 07:15:00;;;;;;;31.13;18.63;;;333.50;1152.00;;;;;;5013154;28;20029;-60
2022/03/26 07:17:26;;;;;;;34.88;16.85;;;333.60;1152.00;;;;;;5013293;28;20038;-60
2022/03/26 07:19:52;;;;;;;32.78;16.45;;;358.40;1126.40;;;;;;5012068;28;20375;-59
2022/03/26 07:22:18;;;;;;;28.27;16.50;;;358.50;1126.40;;;;;;5020720;28;20037;-57
2022/03/26 07:24:44;;;;;;;32.47;17.05;;;358.70;1100.80;;;;;;5031746;28;20040;-60
2022/03/26 07:27:10;;;;;;;29.15;17.27;;;358.80;1100.80;;;;;;5032853;28;20022;-59
2022/03/26 07:29:38;;;;;;;32.63;17.02;;;359.00;1100.80;;;;;;5034264;28;20049;-57
2022/03/26 07:32:06;;;;;;;42.58;18.90;;;359.10;1075.20;;;;;;5033643;28;20072;-57
2022/03/26 07:34:32;;;;;;;32.90;17.88;;;359.10;1075.20;;;;;;5033999;28;20032;-63
2022/03/26 07:36:58;;;;;;;36.22;17.98;;;359.30;1075.20;;;;;;5033304;28;20037;-62
2022/03/26 07:39:23;;;;;;;33.45;18.60;;;384.00;1049.60;;;;;;5034241;28;20033;-65
2022/03/26 07:41:49;;;;;;;37.22;18.00;;;384.10;1049.60;;;;;;5031165;28;20494;-63
2022/03/26 07:44:15;;;;;;;33.75;18.35;;;384.20;1049.60;;;;;;5031834;28;20467;-64
2022/03/26 07:46:41;;;;;;;47.92;22.45;;;384.40;1024.00;;;;;;5032489;28;20383;-65
2022/03/26 07:49:06;;;;;;;57.42;23.67;;;384.60;1024.00;;;;;;5033808;28;20541;-65
2022/03/26 07:51:32;;;;;;;49.20;22.75;;;384.80;1024.00;;;;;;5034028;28;20029;-65
2022/03/26 07:53:58;;;;;;;41.20;18.70;;;409.60;1049.60;;;;;;5034109;28;20383;-65
2022/03/26 07:56:24;;;;;;;33.47;16.00;;;409.70;1049.60;;;;;;5002067;28;20057;-64
2022/03/26 07:58:50;;;;;;;30.80;15.57;;;409.80;1024.00;;;;;;5012773;28;20522;-62
2022/03/26 08:01:16;;;;;;;40.45;18.58;;;409.90;1024.00;;;;;;5012097;28;20037;-65
2022/03/26 08:03:41;;;;;;;43.20;24.60;;;410.00;1024.00;;;;;;5012139;28;20044;-59
2022/03/26 08:06:07;;;;;;;36.17;21.95;;;410.10;998.40;;;;;;5013523;28;20022;-63
2022/03/26 08:08:33;;;;;;;35.75;20.15;;;410.30;998.40;;;;;;5014095;28;20468;-62
2022/03/26 08:10:59;;;;;;;31.25;19.08;;;410.30;998.40;;;;;;5013785;28;20380;-67
2022/03/26 08:13:25;;;;;;;37.70;16.38;;;410.50;998.40;;;;;;5014172;28;20026;-64
2022/03/26 08:15:51;;;;;;;41.28;18.13;;;435.40;1100.80;;;;;;5014053;28;20423;-64
2022/03/26 08:18:17;;;;;;;30.33;18.10;;;435.60;998.40;;;;;;5013744;28;20430;-64
2022/03/26 08:20:45;;;;;;;41.70;18.67;;;435.60;972.80;;;;;;5014135;28;20026;-65
2022/03/26 08:23:11;;;;;;;42.88;19.35;;;435.70;972.80;;;;;;5014079;28;20037;-64
2022/03/26 08:28:24;;;;;;;40.42;23.23;;;436.00;947.20;;;;;;4947070;29;20130;-65
2022/03/26 08:30:49;;;;;;;36.80;20.65;;;436.00;921.60;;;;;;4953543;28;20175;-65
2022/03/26 08:33:16;;;;;;;38.47;19.83;;;460.80;947.20;;;;;;4957702;29;20040;-64
2022/03/26 08:35:42;;;;;;;40.35;21.88;;;460.90;947.20;;;;;;4957390;29;20027;-64
2022/03/26 08:38:09;;;;;;;35.17;20.08;;;461.00;921.60;;;;;;4957365;29;20162;-64
2022/03/26 08:40:35;;;;;;;34.75;20.30;;;461.10;921.60;;;;;;4957162;29;20042;-65
2022/03/26 08:43:01;;;;;;;34.58;20.35;;;461.20;921.60;;;;;;4957185;29;20051;-64
2022/03/26 08:45:29;;;;;;;37.50;20.15;;;461.40;921.60;;;;;;4957241;28;20473;-65
2022/03/26 08:47:55;;;;;;;36.28;19.77;;;461.50;921.60;;;;;;4957019;29;20047;-64
2022/03/26 08:50:22;;;;;;;29.20;17.27;;;461.50;896.00;;;;;;4957131;29;20031;-65
2022/03/26 08:52:49;;;;;;;27.23;15.05;;;461.60;896.00;;;;;;4957069;29;20050;-64
2022/03/26 08:55:16;;;;;;;31.48;16.13;;;461.60;870.40;;;;;;4956984;29;20042;-63
2022/03/26 08:57:43;;;;;;;33.33;15.80;;;486.40;870.40;;;;;;4956829;29;20612;-65
2022/03/26 09:00:11;;;;;;;33.80;16.60;;;486.50;844.80;;;;;;4957046;29;20497;-65
2022/03/26 09:02:39;;;;;;;28.25;16.10;;;486.60;844.80;;;;;;4956782;29;20055;-64
2022/03/26 09:05:06;;;;;;;31.75;16.08;;;486.80;844.80;;;;;;4977230;28;20029;-64
2022/03/26 09:07:35;;;;;;;27.58;15.55;;;486.80;844.80;;;;;;5016878;28;20036;-65
2022/03/26 09:10:02;;;;;;;22.77;12.38;;;486.80;844.80;;;;;;5016972;28;20532;-64
2022/03/26 09:12:28;;;;;;;23.48;13.93;;;486.90;844.80;;;;;;5017268;28;20029;-64
2022/03/26 09:14:54;;;;;;;23.17;12.40;;;487.00;819.20;;;;;;5016888;28;20121;-64
2022/03/26 09:17:19;;;;;;;24.88;12.05;;;487.10;819.20;;;;;;5017222;28;20033;-64
2022/03/26 09:19:45;;;;;;;25.75;13.02;;;487.10;819.20;;;;;;5017022;28;20497;-64
2022/03/26 09:22:11;;;;;;;25.58;14.73;;;487.10;793.60;;;;;;5016893;28;20025;-64
2022/03/26 09:24:37;;;;;;;26.83;14.15;;;487.20;793.60;;;;;;5016941;28;20025;-65
2022/03/26 09:27:03;;;;;;;24.77;14.30;;;487.30;768.00;;;;;;5017071;28;20026;-64
2022/03/26 09:29:28;;;;;;;31.15;16.00;;;487.30;768.00;;;;;;5016880;28;20022;-64
2022/03/26 09:31:55;;;;;;;25.50;12.80;;;512.00;768.00;;;;;;5016746;28;20022;-64
2022/03/26 09:34:21;;;;;;;23.13;13.02;;;512.00;742.40;;;;;;5016918;28;20148;-64
2022/03/26 09:36:47;;;;;;;18.80;11.93;;;512.20;742.40;;;;;;5016796;28;20198;-64
2022/03/26 09:39:13;;;;;;;24.10;12.35;;;512.20;742.40;;;;;;5016864;28;20507;-64
2022/03/26 09:41:39;;;;;;;22.85;11.75;;;512.30;742.40;;;;;;5016339;28;20038;-64
2022/03/26 09:44:06;;;;;;;44.50;23.77;;;512.30;716.80;;;;;;5015469;28;20034;-65
2022/03/26 09:46:35;;;;;;;28.85;16.95;;;512.30;691.20;;;;;;5016547;28;20029;-63
2022/03/26 09:49:02;;;;;;;22.80;13.85;;;512.30;691.20;;;;;;5016504;28;20029;-64
2022/03/26 09:51:29;;;;;;;19.83;11.50;;;512.30;691.20;;;;;;5016396;28;20444;-64
2022/03/26 09:53:56;;;;;;;30.83;15.15;;;512.30;691.20;;;;;;5016378;28;20045;-64
2022/03/26 09:56:23;;;;;;;22.42;10.77;;;512.40;691.20;;;;;;5016104;28;20196;-65
2022/03/26 09:58:53;;;;;;;19.92;10.35;;;512.40;691.20;;;;;;5016362;28;20036;-64
2022/03/26 10:01:20;;;;;;;20.80;10.20;;;512.50;691.20;;;;;;5016336;28;20109;-65
2022/03/26 10:04:08;;;;;;;21.63;10.48;;;512.50;691.20;;;;;;5016384;28;20025;-64
2022/03/26 10:06:35;;;;;;;20.58;10.68;;;512.60;691.20;;;;;;5016224;28;20025;-64
2022/03/26 10:09:00;;;;;;;21.30;9.88;;;512.70;691.20;;;;;;5016125;28;20117;-64
2022/03/26 10:11:32;;;;;;;22.40;10.63;;;512.70;691.20;;;;;;5015794;28;20448;-64
2022/03/26 10:13:58;;;;;;;19.00;10.52;;;512.80;665.60;;;;;;5016069;28;20083;-64
2022/03/26 10:16:24;;;;;;;24.20;12.25;;;512.80;665.60;;;;;;5015864;28;20061;-64
2022/03/26 10:18:53;;;;;;;18.05;10.93;;;512.80;665.60;;;;;;5015570;28;20472;-64
2022/03/26 10:21:21;;;;;;;22.80;12.10;;;537.60;691.20;;;;;;5015797;28;20025;-64
2022/03/26 10:23:48;;;;;;;14.23;9.13;;;537.70;691.20;;;;;;5016019;28;20025;-64
2022/03/26 10:26:16;;;;;;;12.90;7.35;;;537.70;691.20;;;;;;5015698;28;20033;-64
2022/03/26 10:28:42;;;;;;;24.77;12.18;;;537.70;691.20;;;;;;5015731;28;20104;-64
2022/03/26 10:34:14;;;;;;;17.70;7.43;;;537.90;665.60;;;;;;5015885;28;20040;-64
2022/03/26 10:36:53;;;;;;;12.38;6.65;;;538.00;665.60;;;;;;5015411;28;20025;-64
2022/03/26 10:39:30;;;;;;;16.25;7.20;;;537.90;665.60;;;;;;5015539;28;20048;-64
2022/03/26 10:41:57;;;;;;;12.48;6.38;;;538.00;665.60;;;;;;5015152;28;20117;-65
2022/03/26 10:44:25;;;;;;;22.60;9.43;;;538.10;665.60;;;;;;5015356;28;20057;-64
2022/03/26 10:46:59;;;;;;;68.80;26.80;;;538.10;640.00;;;;;;5015320;28;20035;-64
2022/03/26 10:49:30;;;;;;;34.47;13.93;;;538.30;640.00;;;;;;5015162;28;20079;-64
2022/03/26 10:52:04;;;;;;;29.75;7.65;;;538.30;614.40;;;;;;5015098;28;20033;-64
2022/03/26 10:54:32;;;;;;;43.47;16.67;;;538.30;640.00;;;;;;5015338;28;20026;-64
2022/03/26 10:57:01;;;;;;;13.63;6.20;;;538.30;640.00;;;;;;5015089;28;20041;-64
2022/03/26 10:59:29;;;;;;;11.93;5.82;;;538.30;640.00;;;;;;5014989;28;20487;-65
2022/03/26 11:01:55;;;;;;;11.25;5.00;;;538.40;640.00;;;;;;5015166;28;20018;-64
2022/03/26 11:04:21;;;;;;;11.68;5.00;;;538.30;614.40;;;;;;5014926;28;20022;-64
2022/03/26 11:06:48;;;;;;;14.05;5.85;;;538.30;640.00;;;;;;5015145;28;20468;-60
2022/03/26 11:09:15;;;;;;;9.75;5.45;;;538.40;640.00;;;;;;5014487;28;20030;-63
2022/03/26 11:11:43;;;;;;;14.00;5.50;;;538.50;640.00;;;;;;5014529;28;20030;-63
2022/03/26 11:14:36;;;;;;;9.07;5.30;;;538.50;614.40;;;;;;5014971;28;20054;-64
2022/03/26 11:17:27;;;;;;;11.23;5.55;;;538.50;614.40;;;;;;5004071;28;20038;-64
2022/03/26 11:20:14;;;;;;;9.35;5.30;;;563.20;640.00;;;;;;5015038;28;20077;-61
2022/03/26 11:22:48;;;;;;;11.98;4.95;;;563.50;614.40;;;;;;5014678;28;20049;-64
2022/03/26 11:25:13;;;;;;;;;;;563.60;614.40;;;;;;5015006;28;20026;-63
2022/03/26 11:27:57;;;;;;;11.60;5.28;;;563.70;614.40;;;;;;5014629;28;19905;-64
2022/03/26 11:30:53;;;;;;;11.48;5.20;;;563.70;614.40;;;;;;5014712;28;20387;-63
2022/03/26 11:33:20;;;;;;;8.25;4.43;;;563.70;614.40;;;;;;5011660;28;20030;-63
2022/03/26 11:36:00;;;;;;;11.60;4.22;;;563.90;588.80;;;;;;5014014;28;20057;-63
2022/03/26 11:38:28;;;;;;;13.77;4.88;;;564.00;563.20;;;;;;5014219;28;20053;-64
2022/03/26 11:41:00;;;;;;;9.90;5.55;;;563.90;563.20;;;;;;5014212;28;20456;-63
2022/03/26 11:43:44;;;;;;;8.13;5.05;;;563.90;588.80;;;;;;5014309;28;20114;-61
2022/03/26 11:52:11;;;;;;;11.05;5.60;;;563.60;588.80;;;;;;5014290;28;20052;-64
2022/03/26 11:54:37;;;;;;;9.32;4.82;;;563.40;588.80;;;;;;5013388;28;20141;-64
2022/03/26 11:57:10;;;;;;;9.77;4.70;;;563.30;588.80;;;;;;5013997;28;20528;-64
2022/03/26 11:59:38;;;;;;;12.25;5.03;;;563.40;614.40;;;;;;5014414;28;20095;-64
2022/03/26 12:02:23;;;;;;;10.82;5.05;;;563.40;614.40;;;;;;5014012;28;20457;-61
2022/03/26 12:04:53;;;;;;;12.57;3.97;;;563.50;588.80;;;;;;5014013;28;20034;-61
2022/03/26 12:07:22;;;;;;;9.07;4.63;;;563.50;588.80;;;;;;5013479;28;20117;-64
2022/03/26 12:10:03;;;;;;;13.43;5.05;;;563.50;588.80;;;;;;5013958;28;20387;-62
2022/03/26 12:12:48;;;;;;;10.73;5.10;;;563.60;588.80;;;;;;5008343;28;20539;-63
2022/03/26 12:15:14;;;;;;;10.13;5.35;;;563.70;588.80;;;;;;5013522;28;20057;-60
2022/03/26 12:17:53;;;;;;;11.10;4.47;;;563.80;588.80;;;;;;5013061;28;20073;-64